Time;durP1;ratioP1;P1;durP2;ratioP2;P2;SDS_P1;SDS_P2;PMS_P1;PMS_P2;Temp;Humidity;BMP_temperature;BMP_pressure;BME280_temperature;BME280_humidity;BME280_pressure;Samples;Min_cycle;Max_cycle;Signal;HPM_P1;HPM_P2
2023/02/21 02:13:48;;;;;;;;;;;;;;;7.12;67.43;98844.14;107535;1291;22600;-80
2023/02/21 02:16:43;;;;;;;;;;;;;;;7.11;67.31;98841.55;107427;1290;22668;-79
2023/02/21 02:19:29;;;;;;;;;;;;;;;7.05;67.83;98831.48;107119;1292;23540;-79
2023/02/21 02:22:23;;;;;;;;;;;;;;;7.02;67.58;98829.28;106375;1291;22875;-79
2023/02/21 02:25:26;;;;;;;;;;;;;;;6.98;67.57;98822.98;103413;1280;3941759;-79
2023/02/21 02:28:06;;;;;;;;;;;;;;;6.94;67.80;98819.40;106441;1284;22520;-79
2023/02/21 02:31:00;;;;;;;;;;;;;;;6.91;67.76;98826.17;106510;1283;22761;-79
2023/02/21 02:34:04;;;;;;;;;;;;;;;6.89;68.01;98831.55;106405;1284;24237;-81
2023/02/21 02:36:50;;;;;;;;;;;;;;;6.89;68.30;98833.95;106488;1286;25275;-79
2023/02/21 02:39:42;;;;;;;;;;;;;;;6.88;68.54;98839.48;106332;1291;22593;-78
2023/02/21 02:42:38;;;;;;;;;;;;;;;6.89;68.78;98834.64;106312;1283;25944;-80
2023/02/21 02:45:27;;;;;;;;;;;;;;;6.91;69.10;98840.31;106356;1284;22676;-79
2023/02/21 02:48:09;;;;;;;;;;;;;;;6.90;68.95;98840.48;106418;1284;23255;-82
2023/02/21 02:50:47;;;;;;;;;;;;;;;6.90;68.93;98846.70;106459;1283;24379;-79
2023/02/21 02:53:27;;;;;;;;;;;;;;;6.87;68.86;98840.71;106421;1284;25501;-79
2023/02/21 02:56:10;;;;;;;;;;;;;;;6.84;69.02;98840.57;106269;1291;22556;-79
2023/02/21 02:58:57;;;;;;;;;;;;;;;6.79;69.25;98846.15;106680;1291;24264;-79
2023/02/21 03:01:30;;;;;;;;;;;;;;;6.73;69.15;98840.36;106467;1287;22546;-80
2023/02/21 03:04:24;;;;;;;;;;;;;;;6.67;69.65;98838.23;106387;1289;22515;-79
2023/02/21 03:07:04;;;;;;;;;;;;;;;6.60;69.76;98834.70;106274;1291;22654;-78
2023/02/21 03:10:06;;;;;;;;;;;;;;;;;;;;;
2023/02/21 03:13:11;;;;;;;;;;;;;;;6.50;69.87;98835.86;106294;1289;25406;-79
2023/02/21 03:16:23;;;;;;;;;;;;;;;6.46;69.78;98827.99;106379;1284;22677;-79
2023/02/21 03:19:25;;;;;;;;;;;;;;;6.40;69.92;98829.45;106397;1291;22733;-79
2023/02/21 03:22:07;;;;;;;;;;;;;;;6.33;69.93;98826.60;106392;1292;22591;-79
2023/02/21 03:24:41;;;;;;;;;;;;;;;6.29;70.14;98831.82;106314;1286;22530;-80
2023/02/21 03:27:28;;;;;;;;;;;;;;;6.25;70.61;98830.66;106379;1289;25257;-79
2023/02/21 03:30:19;;;;;;;;;;;;;;;6.22;70.98;98831.89;106262;1283;25330;-79
2023/02/21 03:33:01;;;;;;;;;;;;;;;6.21;71.07;98827.61;106225;1284;23913;-79
2023/02/21 03:35:43;;;;;;;;;;;;;;;6.18;71.36;98825.23;106029;1286;22542;-79
2023/02/21 03:38:30;;;;;;;;;;;;;;;6.16;71.28;98825.07;106291;1284;22669;-81
2023/02/21 03:41:15;;;;;;;;;;;;;;;6.12;71.31;98821.17;106280;1284;22518;-79
2023/02/21 03:43:53;;;;;;;;;;;;;;;6.10;70.98;98821.20;106618;1286;22477;-79
2023/02/21 03:46:36;;;;;;;;;;;;;;;6.06;71.42;98818.31;106349;1289;23280;-79
2023/02/21 03:49:25;;;;;;;;;;;;;;;6.02;71.42;98809.06;106177;1287;25229;-79
2023/02/21 03:52:02;;;;;;;;;;;;;;;5.98;71.71;98802.91;106386;1289;22518;-79
2023/02/21 03:54:52;;;;;;;;;;;;;;;5.94;71.96;98804.66;106259;1284;22557;-79
2023/02/21 03:57:35;;;;;;;;;;;;;;;5.93;71.49;98800.19;106249;1289;22599;-79
2023/02/21 04:00:29;;;;;;;;;;;;;;;5.92;71.65;98804.33;106269;1285;22514;-79
2023/02/21 04:03:08;;;;;;;;;;;;;;;5.91;71.81;98801.94;106454;1287;22673;-80
2023/02/21 04:06:09;;;;;;;;;;;;;;;;;;;;;
2023/02/21 04:08:48;;;;;;;;;;;;;;;5.93;72.24;98785.23;106271;1291;22524;-79
2023/02/21 04:11:31;;;;;;;;;;;;;;;5.93;72.42;98776.29;106098;1291;22556;-79
2023/02/21 04:14:08;;;;;;;;;;;;;;;5.95;72.58;98779.71;106313;1291;23808;-79
2023/02/21 04:16:45;;;;;;;;;;;;;;;5.98;72.71;98769.89;106301;1286;24228;-79
2023/02/21 04:19:22;;;;;;;;;;;;;;;6.02;72.64;98766.05;106630;1283;22531;-79
2023/02/21 04:21:54;;;;;;;;;;;;;;;6.03;72.47;98751.41;107624;1284;22462;-79
2023/02/21 04:24:32;;;;;;;;;;;;;;;6.05;72.26;98745.38;107160;1292;22510;-79
2023/02/21 04:27:07;;;;;;;;;;;;;;;6.05;72.26;98745.38;107278;1291;22664;-79
2023/02/21 04:29:41;;;;;;;;;;;;;;;6.05;72.21;98748.46;106675;1287;25383;-79
2023/02/21 04:32:20;;;;;;;;;;;;;;;6.04;72.37;98749.35;106428;1289;22559;-79
2023/02/21 04:34:51;;;;;;;;;;;;;;;6.02;72.31;98746.27;106387;1291;23298;-81
2023/02/21 04:37:26;;;;;;;;;;;;;;;6.01;72.31;98742.67;106412;1287;22520;-81
2023/02/21 04:39:55;;;;;;;;;;;;;;;6.04;72.18;98743.50;106353;1291;22636;-78
2023/02/21 04:42:23;;;;;;;;;;;;;;;6.05;72.23;98742.62;106150;1289;24964;-80
2023/02/21 04:44:54;;;;;;;;;;;;;;;6.06;72.34;98743.98;106366;1291;23283;-78
2023/02/21 04:47:31;;;;;;;;;;;;;;;6.07;72.73;98745.70;106345;1290;24398;-79
2023/02/21 04:50:02;;;;;;;;;;;;;;;6.09;72.66;98738.61;106439;1284;22512;-79
2023/02/21 04:52:39;;;;;;;;;;;;;;;6.11;72.50;98737.89;106394;1290;22528;-78
2023/02/21 04:55:07;;;;;;;;;;;;;;;6.12;72.34;98737.20;106280;1287;24208;-78
2023/02/21 04:57:44;;;;;;;;;;;;;;;6.13;72.27;98737.54;106360;1291;24217;-81
2023/02/21 05:00:20;;;;;;;;;;;;;;;6.13;72.00;98735.64;106421;1283;22520;-79
2023/02/21 05:02:53;;;;;;;;;;;;;;;6.13;72.03;98739.77;106398;1284;22901;-79
2023/02/21 05:05:25;;;;;;;;;;;;;;;6.14;72.01;98740.62;106390;1291;23486;-78
2023/02/21 05:07:56;;;;;;;;;;;;;;;6.12;72.06;98738.41;106392;1281;23955;-79
2023/02/21 05:10:30;;;;;;;;;;;;;;;6.12;72.14;98742.88;106374;1291;23469;-79
2023/02/21 05:13:19;;;;;;;;;;;;;;;6.15;72.27;98737.32;106319;1284;25339;-79
2023/02/21 05:15:47;;;;;;;;;;;;;;;6.17;72.29;98736.79;106337;1283;22525;-79
2023/02/21 05:18:22;;;;;;;;;;;;;;;6.20;72.34;98726.60;106272;1291;23078;-78
2023/02/21 05:20:56;;;;;;;;;;;;;;;6.23;72.29;98728.27;106454;1291;25384;-79
2023/02/21 05:23:38;;;;;;;;;;;;;;;6.23;72.07;98719.33;106316;1291;25494;-80
2023/02/21 05:26:09;;;;;;;;;;;;;;;6.26;72.02;98723.79;106402;1290;25225;-79
2023/02/21 05:28:42;;;;;;;;;;;;;;;6.27;71.81;98723.23;106367;1284;26027;-79
2023/02/21 05:31:17;;;;;;;;;;;;;;;6.29;71.76;98732.67;106273;1290;22536;-78
2023/02/21 05:33:52;;;;;;;;;;;;;;;6.31;71.65;98735.23;106185;1284;25542;-79
2023/02/21 05:36:24;;;;;;;;;;;;;;;6.35;71.53;98738.43;106097;1290;22542;-78
2023/02/21 05:38:55;;;;;;;;;;;;;;;6.41;71.43;98741.11;106157;1291;23142;-80
2023/02/21 05:41:32;;;;;;;;;;;;;;;6.51;71.11;98736.50;106529;1283;26020;-77
2023/02/21 05:44:08;;;;;;;;;;;;;;;6.62;71.05;98739.11;106445;1291;25408;-78
2023/02/21 05:46:48;;;;;;;;;;;;;;;6.63;71.32;98731.33;106557;1284;22528;-78
2023/02/21 05:49:17;;;;;;;;;;;;;;;6.60;71.51;98731.73;106307;1286;22631;-79
2023/02/21 05:51:48;;;;;;;;;;;;;;;6.60;71.57;98730.36;106378;1285;23204;-79
2023/02/21 05:54:22;;;;;;;;;;;;;;;6.61;71.35;98735.15;106210;1292;22525;-81
2023/02/21 05:56:59;;;;;;;;;;;;;;;6.65;71.27;98742.16;106439;1284;25365;-78
2023/02/21 05:59:33;;;;;;;;;;;;;;;6.70;71.12;98749.83;106433;1291;23994;-78
2023/02/21 06:02:03;;;;;;;;;;;;;;;6.76;70.85;98755.94;106482;1284;22640;-78
2023/02/21 06:04:40;;;;;;;;;;;;;;;6.84;70.58;98765.29;106630;1292;22519;-79
2023/02/21 06:07:10;;;;;;;;;;;;;;;6.94;70.32;98781.15;106586;1289;24239;-79
2023/02/21 06:09:45;;;;;;;;;;;;;;;7.03;70.12;98785.00;106740;1284;22608;-78
2023/02/21 06:12:21;;;;;;;;;;;;;;;7.10;69.84;98790.90;107191;1286;22785;-78
2023/02/21 06:14:54;;;;;;;;;;;;;;;7.18;69.70;98789.40;106967;1284;24310;-79
2023/02/21 06:17:29;;;;;;;;;;;;;;;7.19;69.96;98784.20;106376;1287;22468;-78
2023/02/21 06:20:07;;;;;;;;;;;;;;;7.14;70.29;98778.60;106457;1291;25004;-79
2023/02/21 06:22:35;;;;;;;;;;;;;;;7.11;70.69;98774.17;106558;1290;23171;-78
2023/02/21 06:25:12;;;;;;;;;;;;;;;7.08;71.06;98770.60;107093;1291;22642;-78
2023/02/21 06:27:43;;;;;;;;;;;;;;;7.08;71.26;98776.12;107398;1291;22814;-79
2023/02/21 06:30:16;;;;;;;;;;;;;;;7.10;71.30;98770.58;106694;1291;25253;-79
2023/02/21 06:32:54;;;;;;;;;;;;;;;7.10;71.21;98772.29;106295;1291;22516;-79
2023/02/21 06:35:29;;;;;;;;;;;;;;;7.10;71.16;98777.64;106356;1284;24222;-79
2023/02/21 06:38:03;;;;;;;;;;;;;;;7.13;71.04;98770.18;106411;1285;22635;-79
2023/02/21 06:40:31;;;;;;;;;;;;;;;7.13;70.97;98768.27;106458;1284;23378;-78
2023/02/21 06:43:01;;;;;;;;;;;;;;;7.15;71.04;98766.17;106491;1288;22947;-79
2023/02/21 06:45:32;;;;;;;;;;;;;;;7.16;71.01;98767.37;106337;1288;23791;-79
2023/02/21 06:48:10;;;;;;;;;;;;;;;7.19;71.03;98774.39;106330;1284;24026;-79
2023/02/21 06:50:47;;;;;;;;;;;;;;;7.22;71.04;98770.02;106257;1291;22654;-79
2023/02/21 06:53:19;;;;;;;;;;;;;;;7.29;70.87;98764.05;107264;1283;22600;-80
2023/02/21 06:55:54;;;;;;;;;;;;;;;7.37;70.83;98762.71;107482;1286;24372;-83
2023/02/21 06:58:34;;;;;;;;;;;;;;;7.47;70.83;98755.96;108079;1274;23247;-81
2023/02/21 07:01:11;;;;;;;;;;;;;;;7.59;70.81;98743.01;108033;1290;22547;-81
2023/02/21 07:03:55;;;;;;;;;;;;;;;7.72;70.55;98732.23;107909;1287;22561;-81
2023/02/21 07:06:37;;;;;;;;;;;;;;;7.83;69.90;98732.88;108330;1289;22511;-82
2023/02/21 07:09:14;;;;;;;;;;;;;;;7.94;69.41;98738.52;108545;1287;22868;-84
2023/02/21 07:11:46;;;;;;;;;;;;;;;8.07;68.89;98739.83;108338;1292;22783;-81
2023/02/21 07:18:03;;;;;;;;;;;;;;;8.25;68.98;98749.28;108650;1284;22561;-80
2023/02/21 07:20:50;;;;;;;;;;;;;;;8.26;68.90;98751.68;107632;1290;22992;-80
2023/02/21 07:23:21;;;;;;;;;;;;;;;8.31;68.55;98753.46;108477;1260;22587;-81
2023/02/21 07:26:04;;;;;;;;;;;;;;;8.37;68.02;98743.14;108484;1266;22781;-81
2023/02/21 07:28:53;;;;;;;;;;;;;;;8.44;67.51;98735.77;108347;1284;22785;-80
2023/02/21 07:31:34;;;;;;;;;;;;;;;8.51;67.30;98724.58;107829;1290;25152;-79
2023/02/21 07:34:14;;;;;;;;;;;;;;;8.55;67.19;98730.88;108832;1283;22616;-82
2023/02/21 07:36:53;;;;;;;;;;;;;;;8.63;67.04;98722.22;108830;1284;22600;-82
2023/02/21 07:39:22;;;;;;;;;;;;;;;8.67;66.75;98719.02;108909;1286;22714;-80
2023/02/21 07:42:07;;;;;;;;;;;;;;;8.74;66.61;98727.49;108880;1286;22525;-81
2023/02/21 07:45:17;;;;;;;;;;;;;;;8.81;66.24;98718.52;109504;1267;22714;-79
2023/02/21 07:51:30;;;;;;;;;;;;;;;8.91;65.60;98722.58;109597;1270;22863;-81
2023/02/21 07:54:22;;;;;;;;;;;;;;;8.97;65.80;98724.70;109123;1292;22652;-84
2023/02/21 07:57:16;;;;;;;;;;;;;;;9.03;65.89;98722.30;109350;1272;22600;-80
2023/02/21 07:59:58;;;;;;;;;;;;;;;9.07;65.88;98728.08;108736;1291;22552;-78
2023/02/21 08:02:40;;;;;;;;;;;;;;;9.11;65.89;98722.80;109257;1289;22582;-83
2023/02/21 08:09:43;;;;;;;;;;;;;;;9.20;65.38;98728.98;108731;1269;22529;-80
2023/02/21 08:12:40;;;;;;;;;;;;;;;;;;;;;
2023/02/21 08:15:16;;;;;;;;;;;;;;;9.35;65.21;98731.19;109065;1292;22551;-80
2023/02/21 08:17:50;;;;;;;;;;;;;;;9.39;65.21;98726.93;108872;1289;22572;-82
2023/02/21 08:20:45;;;;;;;;;;;;;;;9.44;65.42;98722.98;108832;1289;22561;-82
2023/02/21 08:23:25;;;;;;;;;;;;;;;9.48;65.00;98723.77;108670;1292;25966;-82
2023/02/21 08:25:54;;;;;;;;;;;;;;;9.52;64.85;98718.63;108486;1292;22471;-82
2023/02/21 08:28:25;;;;;;;;;;;;;;;9.58;64.77;98712.05;108984;1292;22726;-83
2023/02/21 08:30:54;;;;;;;;;;;;;;;9.63;64.54;98700.34;108630;1290;22593;-81
2023/02/21 08:33:30;;;;;;;;;;;;;;;9.71;63.99;98693.88;107888;1286;22560;-80
2023/02/21 08:36:02;;;;;;;;;;;;;;;9.74;63.61;98678.55;108112;1283;22543;-84
2023/02/21 08:38:35;;;;;;;;;;;;;;;9.80;63.80;98681.36;108471;1286;22933;-82
2023/02/21 08:41:09;;;;;;;;;;;;;;;9.86;63.82;98690.01;109031;1282;24474;-80
2023/02/21 08:43:38;;;;;;;;;;;;;;;9.91;63.23;98700.41;109037;1292;22527;-81
2023/02/21 08:46:10;;;;;;;;;;;;;;;10.00;63.42;98703.11;108739;1292;22567;-79
2023/02/21 08:48:46;;;;;;;;;;;;;;;10.07;63.35;98698.40;109190;1290;22897;-80
2023/02/21 08:51:26;;;;;;;;;;;;;;;10.14;62.93;98699.57;108856;1292;22685;-80
2023/02/21 08:53:58;;;;;;;;;;;;;;;10.20;62.50;98698.71;109013;1285;23575;-81
2023/02/21 08:56:32;;;;;;;;;;;;;;;10.26;62.04;98706.83;108738;1278;22570;-80
2023/02/21 08:59:04;;;;;;;;;;;;;;;10.33;62.07;98710.30;108910;1294;22854;-80
2023/02/21 09:01:40;;;;;;;;;;;;;;;10.38;62.05;98696.46;109162;1286;23873;-79
2023/02/21 09:04:17;;;;;;;;;;;;;;;10.46;61.89;98695.17;109170;1292;22607;-79
2023/02/21 09:06:56;;;;;;;;;;;;;;;10.52;61.32;98707.47;108870;1290;22937;-80
2023/02/21 09:09:27;;;;;;;;;;;;;;;10.53;61.12;98698.58;108947;1293;22584;-80
2023/02/21 09:12:02;;;;;;;;;;;;;;;10.58;61.29;98694.27;109090;1290;22615;-80
2023/02/21 09:14:47;;;;;;;;;;;;;;;10.66;61.10;98702.86;109000;1292;22683;-80
2023/02/21 09:17:25;;;;;;;;;;;;;;;10.67;60.93;98699.20;109000;1293;22552;-81
2023/02/21 09:20:08;;;;;;;;;;;;;;;10.71;60.78;98697.69;108985;1289;23046;-81
2023/02/21 09:22:44;;;;;;;;;;;;;;;10.77;60.39;98698.70;108449;1290;22483;-81
2023/02/21 09:25:22;;;;;;;;;;;;;;;10.81;60.72;98696.68;108429;1288;22468;-81
2023/02/21 09:28:00;;;;;;;;;;;;;;;10.84;60.54;98690.32;108739;1293;22562;-81
2023/02/21 09:30:45;;;;;;;;;;;;;;;10.89;60.08;98699.20;108061;1289;23796;-81
2023/02/21 09:33:17;;;;;;;;;;;;;;;10.93;60.21;98690.05;108359;1292;22645;-81
2023/02/21 09:35:52;;;;;;;;;;;;;;;11.02;60.18;98683.48;108114;1287;24500;-81
2023/02/21 09:38:21;;;;;;;;;;;;;;;11.11;59.97;98677.66;108310;1287;22758;-79
2023/02/21 09:40:59;;;;;;;;;;;;;;;11.17;59.68;98672.09;108301;1293;22599;-81
2023/02/21 09:43:42;;;;;;;;;;;;;;;11.25;59.68;98666.95;108588;1292;22480;-81
2023/02/21 09:46:39;;;;;;;;;;;;;;;11.33;58.87;98676.73;108505;1292;22513;-80
2023/02/21 09:49:18;;;;;;;;;;;;;;;11.40;58.71;98681.17;108677;1285;22535;-81
2023/02/21 09:55:38;;;;;;;;;;;;;;;11.63;57.92;98680.70;109622;1269;22529;-79
2023/02/21 09:58:41;;;;;;;;;;;;;;;11.69;57.70;98668.14;109204;1271;22495;-86
2023/02/21 10:08:43;;;;;;;;;;;;;;;11.90;57.16;98659.27;109312;1270;22513;-80
2023/02/21 10:12:18;;;;;;;;;;;;;;;11.95;56.19;98672.79;109214;1270;23344;-80
2023/02/21 10:15:37;;;;;;;;;;;;;;;12.04;56.44;98665.30;108597;1292;22550;-80
2023/02/21 10:18:26;;;;;;;;;;;;;;;12.15;55.96;98674.66;109201;1287;22531;-81
2023/02/21 10:21:03;;;;;;;;;;;;;;;12.26;55.62;98671.11;108454;1292;22695;-82
2023/02/21 10:23:48;;;;;;;;;;;;;;;12.37;55.28;98674.64;108532;1287;22729;-80
2023/02/21 10:26:31;;;;;;;;;;;;;;;12.46;55.28;98665.80;108305;1292;22468;-80
2023/02/21 10:29:17;;;;;;;;;;;;;;;12.52;55.08;98658.77;107985;1292;22546;-80
2023/02/21 10:31:56;;;;;;;;;;;;;;;12.60;55.25;98658.13;108024;1280;23847;-80
2023/02/21 10:34:36;;;;;;;;;;;;;;;12.68;54.47;98655.71;108125;1292;24227;-80
2023/02/21 10:37:31;;;;;;;;;;;;;;;12.77;54.26;98657.61;108564;1292;22502;-80
2023/02/21 10:40:33;;;;;;;;;;;;;;;12.88;53.64;98646.36;108552;1292;25277;-80
2023/02/21 10:43:19;;;;;;;;;;;;;;;12.99;53.26;98644.19;108373;1292;22896;-79
2023/02/21 10:46:21;;;;;;;;;;;;;;;13.05;53.36;98634.84;107657;1292;23003;-80
2023/02/21 10:49:00;;;;;;;;;;;;;;;13.20;52.42;98641.04;107607;1289;25422;-80
2023/02/21 10:51:37;;;;;;;;;;;;;;;13.26;51.90;98637.97;107646;1290;22560;-79
2023/02/21 10:54:29;;;;;;;;;;;;;;;13.32;52.13;98630.77;107512;1292;22791;-79
2023/02/21 10:57:10;;;;;;;;;;;;;;;13.46;51.96;98626.17;107479;1292;22540;-79
2023/02/21 10:59:51;;;;;;;;;;;;;;;13.58;51.03;98628.94;107392;1290;22622;-80
2023/02/21 11:02:31;;;;;;;;;;;;;;;13.68;51.24;98634.90;107852;1290;24288;-80
2023/02/21 11:05:26;;;;;;;;;;;;;;;13.76;50.14;98643.81;107587;1293;22700;-80
2023/02/21 11:08:06;;;;;;;;;;;;;;;13.86;50.54;98642.65;107631;1292;22468;-79
2023/02/21 11:10:46;;;;;;;;;;;;;;;13.99;49.94;98644.86;107460;1287;23472;-80
2023/02/21 11:13:25;;;;;;;;;;;;;;;13.99;49.57;98640.67;107628;1287;22533;-79
2023/02/21 11:16:34;;;;;;;;;;;;;;;14.08;49.56;98633.96;107686;1276;22643;-83
2023/02/21 11:19:11;;;;;;;;;;;;;;;14.13;49.27;98631.13;107378;1292;23904;-79
2023/02/21 11:21:54;;;;;;;;;;;;;;;14.15;49.22;98636.27;109035;1290;22660;-80
2023/02/21 11:24:22;;;;;;;;;;;;;;;14.21;49.44;98629.89;108762;1292;22490;-80
2023/02/21 11:26:53;;;;;;;;;;;;;;;14.30;49.24;98630.16;108876;1287;22999;-80
2023/02/21 11:29:30;;;;;;;;;;;;;;;14.42;49.88;98624.20;109127;1286;22542;-80
2023/02/21 11:31:59;;;;;;;;;;;;;;;14.46;49.25;98626.40;108795;1293;23052;-79
2023/02/21 11:34:34;;;;;;;;;;;;;;;14.43;48.66;98626.41;108982;1289;22650;-80
2023/02/21 11:37:10;;;;;;;;;;;;;;;14.48;49.87;98609.94;108854;1292;23910;-80
2023/02/21 11:39:54;;;;;;;;;;;;;;;14.55;48.96;98612.04;107747;1288;22728;-79
2023/02/21 11:42:33;;;;;;;;;;;;;;;14.63;49.30;98609.79;107690;1288;22689;-80
2023/02/21 11:45:23;;;;;;;;;;;;;;;14.72;48.56;98606.38;107467;1292;22540;-79
2023/02/21 11:48:00;;;;;;;;;;;;;;;14.75;48.08;98602.54;107239;1292;23003;-79
2023/02/21 11:50:38;;;;;;;;;;;;;;;14.78;48.28;98605.68;107386;1289;22619;-80
2023/02/21 11:53:13;;;;;;;;;;;;;;;14.86;48.23;98588.71;107430;1292;23930;-78
2023/02/21 11:55:49;;;;;;;;;;;;;;;15.11;48.15;98597.77;107409;1293;22580;-80
2023/02/21 11:58:17;;;;;;;;;;;;;;;15.39;47.47;98598.91;107453;1293;24909;-79
2023/02/21 12:01:10;;;;;;;;;;;;;;;15.58;47.06;98597.20;107276;1292;22611;-79
2023/02/21 12:03:53;;;;;;;;;;;;;;;15.70;47.28;98587.50;107046;1293;22553;-80
2023/02/21 12:06:39;;;;;;;;;;;;;;;15.76;47.48;98593.32;107332;1291;22588;-80
2023/02/21 12:09:14;;;;;;;;;;;;;;;15.83;47.33;98592.23;107011;1292;24265;-79
2023/02/21 12:11:48;;;;;;;;;;;;;;;15.84;47.09;98583.97;107152;1292;22881;-78
2023/02/21 12:14:24;;;;;;;;;;;;;;;15.77;48.11;98591.18;107454;1286;23190;-80
2023/02/21 12:16:55;;;;;;;;;;;;;;;15.67;48.18;98593.04;107632;1292;22545;-79
2023/02/21 12:19:39;;;;;;;;;;;;;;;15.46;47.71;98587.20;107625;1290;22654;-81
2023/02/21 12:22:32;;;;;;;;;;;;;;;15.42;47.70;98584.98;107490;1293;22574;-80
2023/02/21 12:25:11;;;;;;;;;;;;;;;15.25;48.80;98584.26;107353;1286;26669;-79
2023/02/21 12:27:54;;;;;;;;;;;;;;;15.20;49.10;98582.62;107513;1286;22485;-80
2023/02/21 12:30:30;;;;;;;;;;;;;;;15.09;48.06;98591.55;107262;1290;23394;-79
2023/02/21 12:33:44;;;;;;;;;;;;;;;14.98;47.98;98590.23;107548;1287;22521;-80
2023/02/21 12:36:33;;;;;;;;;;;;;;;14.89;48.97;98586.98;107453;1287;22547;-79
2023/02/21 12:39:07;;;;;;;;;;;;;;;14.77;48.51;98586.03;107434;1289;22663;-78
2023/02/21 12:41:44;;;;;;;;;;;;;;;14.79;48.66;98585.58;107832;1280;22602;-80
2023/02/21 12:44:25;;;;;;;;;;;;;;;14.81;48.78;98584.27;108898;1292;22471;-79
2023/02/21 12:47:02;;;;;;;;;;;;;;;14.75;48.99;98596.93;108645;1293;22562;-81
2023/02/21 12:49:35;;;;;;;;;;;;;;;14.79;49.18;98591.52;108903;1285;22554;-80
2023/02/21 12:52:10;;;;;;;;;;;;;;;14.82;48.93;98595.23;107884;1286;22663;-80
2023/02/21 12:55:07;;;;;;;;;;;;;;;14.72;48.72;98599.23;107447;1287;22528;-79
2023/02/21 12:57:40;;;;;;;;;;;;;;;14.73;49.20;98590.27;107263;1288;22520;-79
2023/02/21 13:00:36;;;;;;;;;;;;;;;14.75;49.07;98592.43;107303;1286;22555;-79
2023/02/21 13:03:28;;;;;;;;;;;;;;;14.72;49.29;98595.02;107094;1286;22559;-78
2023/02/21 13:06:18;;;;;;;;;;;;;;;14.77;49.12;98598.06;107151;1293;27451;-80
2023/02/21 13:08:53;;;;;;;;;;;;;;;14.90;49.29;98595.14;107207;1288;22608;-80
2023/02/21 13:11:34;;;;;;;;;;;;;;;15.17;49.11;98593.41;107323;1292;22894;-80
2023/02/21 13:14:08;;;;;;;;;;;;;;;15.16;48.57;98598.23;107234;1290;22534;-80
2023/02/21 13:16:42;;;;;;;;;;;;;;;15.23;48.47;98585.97;107171;1293;22965;-80
2023/02/21 13:19:12;;;;;;;;;;;;;;;15.24;48.66;98581.05;107428;1289;22496;-81
2023/02/21 13:22:01;;;;;;;;;;;;;;;15.28;48.87;98583.08;107345;1292;23219;-80
2023/02/21 13:24:51;;;;;;;;;;;;;;;15.33;48.76;98588.44;107408;1293;24409;-80
2023/02/21 13:27:43;;;;;;;;;;;;;;;15.43;49.11;98593.10;107485;1286;22677;-79
2023/02/21 13:30:24;;;;;;;;;;;;;;;15.65;49.08;98576.60;108372;1286;22772;-80
2023/02/21 13:32:57;;;;;;;;;;;;;;;15.68;47.32;98587.91;108383;1293;23098;-80
2023/02/21 13:35:39;;;;;;;;;;;;;;;15.90;47.75;98576.98;107641;1293;22501;-80
2023/02/21 13:38:10;;;;;;;;;;;;;;;16.01;48.03;98574.11;108325;1293;22544;-80
2023/02/21 13:40:50;;;;;;;;;;;;;;;16.10;47.91;98573.78;108110;1289;23404;-80
2023/02/21 13:43:29;;;;;;;;;;;;;;;16.12;48.13;98580.67;108918;1293;23430;-81
2023/02/21 13:46:19;;;;;;;;;;;;;;;16.18;47.80;98584.02;108888;1293;24016;-80
2023/02/21 13:49:14;;;;;;;;;;;;;;;16.24;47.32;98575.28;108913;1286;22785;-80
2023/02/21 13:51:54;;;;;;;;;;;;;;;16.42;47.37;98571.09;108950;1292;22814;-82
2023/02/21 13:54:25;;;;;;;;;;;;;;;16.63;47.66;98565.88;108822;1289;23128;-79
2023/02/21 13:56:56;;;;;;;;;;;;;;;16.79;46.18;98561.13;108790;1290;22555;-81
2023/02/21 13:59:34;;;;;;;;;;;;;;;16.98;46.39;98564.20;108968;1289;24163;-80
2023/02/21 14:02:21;;;;;;;;;;;;;;;17.24;45.72;98564.58;108453;1292;22583;-81
2023/02/21 14:04:57;;;;;;;;;;;;;;;17.46;45.34;98567.23;108365;1286;22520;-80
2023/02/21 14:07:47;;;;;;;;;;;;;;;17.63;45.00;98572.17;108322;1292;22710;-80
2023/02/21 14:10:23;;;;;;;;;;;;;;;17.78;42.93;98573.03;107735;1293;22598;-80
2023/02/21 14:13:00;;;;;;;;;;;;;;;17.94;42.34;98576.39;108352;1294;22592;-80
2023/02/21 14:15:39;;;;;;;;;;;;;;;18.04;42.60;98572.03;107791;1293;22607;-81
2023/02/21 14:18:19;;;;;;;;;;;;;;;18.09;41.95;98573.34;108245;1293;22615;-80
2023/02/21 14:20:49;;;;;;;;;;;;;;;18.17;42.17;98575.45;107236;1293;23036;-80
2023/02/21 14:23:22;;;;;;;;;;;;;;;18.21;41.57;98578.56;107042;1289;22680;-80
2023/02/21 14:26:07;;;;;;;;;;;;;;;18.11;40.52;98569.72;106352;1292;638262;-80
2023/02/21 14:29:10;;;;;;;;;;;;;;;17.95;40.63;98575.48;106810;1289;24250;-80
2023/02/21 14:32:06;;;;;;;;;;;;;;;17.93;41.65;98576.44;107116;1286;22816;-79
2023/02/21 14:34:57;;;;;;;;;;;;;;;17.74;41.05;98578.83;107176;1293;24679;-80
2023/02/21 14:37:32;;;;;;;;;;;;;;;17.69;41.13;98577.23;107135;1287;24328;-79
2023/02/21 14:40:14;;;;;;;;;;;;;;;17.67;41.46;98575.20;107060;1292;22910;-80
2023/02/21 14:42:48;;;;;;;;;;;;;;;17.51;41.19;98572.59;107255;1286;22582;-79
2023/02/21 14:45:26;;;;;;;;;;;;;;;17.43;41.19;98574.11;107103;1289;25431;-80
2023/02/21 14:48:03;;;;;;;;;;;;;;;17.43;42.24;98566.73;107052;1290;22527;-80
2023/02/21 14:50:44;;;;;;;;;;;;;;;17.34;42.18;98571.85;107264;1293;25454;-80
2023/02/21 14:53:44;;;;;;;;;;;;;;;17.24;42.26;98577.71;106950;1280;22559;-80
2023/02/21 14:56:42;;;;;;;;;;;;;;;17.13;42.45;98583.48;107110;1286;25410;-80
2023/02/21 14:59:56;;;;;;;;;;;;;;;17.03;42.51;98587.39;107341;1293;22785;-80
2023/02/21 15:02:45;;;;;;;;;;;;;;;16.95;42.55;98589.77;107330;1293;22543;-79
2023/02/21 15:05:28;;;;;;;;;;;;;;;16.85;42.77;98594.90;107593;1287;22536;-80
2023/02/21 15:08:04;;;;;;;;;;;;;;;16.78;42.96;98591.23;107363;1293;22535;-80
2023/02/21 15:11:04;;;;;;;;;;;;;;;16.64;43.23;98596.79;107154;1286;23780;-80
2023/02/21 15:13:42;;;;;;;;;;;;;;;16.57;43.47;98600.02;107438;1286;22520;-79
2023/02/21 15:16:16;;;;;;;;;;;;;;;16.45;43.36;98607.84;107590;1292;22535;-79
2023/02/21 15:18:59;;;;;;;;;;;;;;;16.39;43.59;98598.77;107062;1289;22534;-79
2023/02/21 15:21:32;;;;;;;;;;;;;;;16.27;43.59;98603.95;107112;1290;25934;-80
2023/02/21 15:24:30;;;;;;;;;;;;;;;16.15;43.95;98601.66;106880;1286;22579;-79
2023/02/21 15:27:10;;;;;;;;;;;;;;;16.02;44.41;98608.85;106617;1284;22478;-79
2023/02/21 15:29:46;;;;;;;;;;;;;;;15.78;44.30;98610.35;107507;1287;22544;-79
2023/02/21 15:32:19;;;;;;;;;;;;;;;15.64;44.81;98616.80;107866;1292;23899;-80
2023/02/21 15:34:56;;;;;;;;;;;;;;;15.53;45.10;98621.96;107800;1292;22630;-80
2023/02/21 15:37:39;;;;;;;;;;;;;;;15.35;45.55;98615.19;106713;1287;23636;-79
2023/02/21 15:40:21;;;;;;;;;;;;;;;15.23;45.66;98616.70;107194;1293;22542;-78
2023/02/21 15:42:59;;;;;;;;;;;;;;;15.11;45.95;98613.79;106655;1289;22536;-79
2023/02/21 15:45:40;;;;;;;;;;;;;;;14.99;46.28;98620.86;107032;1292;23008;-79
2023/02/21 15:48:16;;;;;;;;;;;;;;;14.91;46.64;98621.45;106797;1289;22566;-78
2023/02/21 15:50:51;;;;;;;;;;;;;;;14.79;46.70;98615.94;106721;1292;22533;-79
2023/02/21 15:53:28;;;;;;;;;;;;;;;14.68;47.17;98625.57;106804;1292;23247;-79
2023/02/21 15:56:28;;;;;;;;;;;;;;;14.60;47.21;98619.34;106625;1286;22594;-79
2023/02/21 15:59:15;;;;;;;;;;;;;;;14.49;47.63;98630.27;106785;1286;22490;-79
2023/02/21 16:02:11;;;;;;;;;;;;;;;14.41;47.70;98627.17;106823;1292;22642;-79
2023/02/21 16:04:49;;;;;;;;;;;;;;;14.36;47.92;98625.86;106918;1286;22566;-78
2023/02/21 16:07:32;;;;;;;;;;;;;;;14.29;47.96;98633.31;106792;1290;24243;-79
2023/02/21 16:10:11;;;;;;;;;;;;;;;14.18;48.53;98634.92;106726;1294;22653;-79
2023/02/21 16:12:50;;;;;;;;;;;;;;;14.09;48.79;98636.89;106871;1292;22931;-78
2023/02/21 16:15:34;;;;;;;;;;;;;;;14.02;48.80;98640.34;106668;1292;24670;-79
2023/02/21 16:18:12;;;;;;;;;;;;;;;13.94;49.18;98639.14;106900;1292;25412;-81
2023/02/21 16:20:44;;;;;;;;;;;;;;;13.86;49.53;98644.39;107254;1286;22527;-80
2023/02/21 16:23:34;;;;;;;;;;;;;;;13.78;49.92;98643.23;106999;1293;22504;-78
2023/02/21 16:26:19;;;;;;;;;;;;;;;13.71;49.93;98642.80;107068;1292;24254;-80
2023/02/21 16:28:57;;;;;;;;;;;;;;;13.63;50.47;98646.46;107411;1293;22583;-80
2023/02/21 16:31:29;;;;;;;;;;;;;;;13.53;50.70;98644.48;107388;1292;22551;-79